This is the latest recevied weather packets stored in our database for station/object HS5FXK-3. If no packets are shown the sender has not sent any weather packets the latest 10 day(s).
| Time | Temp. | Humidity | Pressure | Rain* | Wind** | Luminosity | Snow |
|---|---|---|---|---|---|---|---|
| 1778155740 | 30.56° C | 55% | 975 hPa | - | - | 0 W/m² | - |
| 1778154827 | 30.56° C | 55% | 975 hPa | - | - | 0 W/m² | - |
| 1778153915 | 30.56° C | 58% | 975 hPa | - | - | 0 W/m² | - |
| 1778153003 | 30.56° C | 57% | 975 hPa | - | - | 0 W/m² | - |
| 1778152091 | 32.78° C | 50% | 975 hPa | - | - | 0 W/m² | - |
| 1778151178 | 35.56° C | 45% | 974 hPa | - | - | 0 W/m² | - |
| 1778150266 | 36.11° C | 43% | 973 hPa | - | - | 0 W/m² | - |
| 1778149354 | 36.11° C | 43% | 973 hPa | - | - | 0 W/m² | - |
| 1778149131 | 36.11° C | 44% | 973 hPa | - | - | 0 W/m² | - |
| 1778148217 | 37.22° C | 41% | 973 hPa | - | - | 0 W/m² | - |
| 1778147548 | 38.33° C | 41% | 973 hPa | - | - | 0 W/m² | - |
| 1778146855 | 38.33° C | 39% | 973 hPa | - | - | 0 W/m² | - |
| 1778145943 | 39.44° C | 38% | 973 hPa | - | - | 0 W/m² | - |
| 1778144987 | 40.56° C | 35% | 973 hPa | - | - | 0 W/m² | - |
| 1778144877 | 40.56° C | 36% | 973 hPa | - | - | 0 W/m² | - |
| 1778143052 | 41.11° C | 35% | 973 hPa | - | - | 0 W/m² | - |
| 1778142140 | 41.11° C | 36% | 973 hPa | - | - | 0 W/m² | - |
| 1778141765 | 40° C | 36% | 973 hPa | - | - | 0 W/m² | - |
| 1778140853 | 41.67° C | 33% | 973 hPa | - | - | 0 W/m² | - |
| 1778139941 | 41.67° C | 35% | 974 hPa | - | - | 0 W/m² | - |
| 1778139878 | 42.22° C | 34% | 974 hPa | - | - | 0 W/m² | - |
| 1778138966 | 41.11° C | 35% | 974 hPa | - | - | 0 W/m² | - |
| 1778138054 | 40.56° C | 37% | 974 hPa | - | - | 0 W/m² | - |
| 1778137143 | 41.67° C | 35% | 975 hPa | - | - | 0 W/m² | - |
| 1778136229 | 41.11° C | 35% | 975 hPa | - | - | 0 W/m² | - |
* Rain since midnight (hover to see other rain measurements)
** Current wind speed in m/s (hover to see current wind gust speed)